createdAt,value
2023-04-18T00:08:07.429Z,16
2023-04-18T00:36:19.996Z,17
2023-04-18T01:04:34.685Z,19
2023-04-18T01:32:53.382Z,20
2023-04-18T02:01:16.503Z,21
2023-04-18T02:29:30.794Z,25
2023-04-18T02:57:50.612Z,29
2023-04-18T03:26:12.275Z,29
2023-04-18T03:54:29.588Z,31
2023-04-18T04:22:51.897Z,32
2023-04-18T04:51:07.775Z,31
2023-04-18T05:19:32.301Z,30
2023-04-18T05:47:49.758Z,31
2023-04-18T06:16:11.688Z,31
2023-04-18T06:44:30.763Z,29
2023-04-18T07:12:52.011Z,32
2023-04-18T07:41:13.645Z,32
2023-04-18T08:09:31.453Z,31
2023-04-18T08:37:49.985Z,31
2023-04-18T09:06:06.940Z,61
2023-04-18T09:34:29.293Z,27
2023-04-18T10:02:50.896Z,27
2023-04-18T10:31:22.132Z,25
2023-04-18T10:59:45.699Z,26
2023-04-18T11:27:54.156Z,29
2023-04-18T11:56:13.433Z,26
2023-04-18T12:24:44.632Z,27
2023-04-18T12:52:59.899Z,27
2023-04-18T13:21:19.915Z,26
2023-04-18T13:49:42.507Z,22
2023-04-18T14:18:01.970Z,16
2023-04-18T14:46:17.438Z,16
2023-04-18T15:14:38.948Z,17
2023-04-18T15:42:43.225Z,11
2023-04-18T16:10:59.053Z,10
2023-04-18T16:39:19.380Z,11
2023-04-18T17:07:34.010Z,8
2023-04-18T17:35:52.462Z,9
2023-04-18T18:04:09.717Z,10
2023-04-18T18:32:30.688Z,11
2023-04-18T19:00:48.344Z,13
2023-04-18T19:29:05.432Z,14
2023-04-18T19:57:19.768Z,14
2023-04-18T20:25:36.449Z,15
2023-04-18T20:53:53.651Z,19
2023-04-18T21:22:08.345Z,19
2023-04-18T21:50:29.872Z,20
2023-04-18T22:18:55.355Z,20
2023-04-18T22:47:11.544Z,20
2023-04-18T23:15:28.997Z,21
2023-04-18T23:43:45.285Z,20
